createdAt,value
2019-03-09T00:02:23.775Z,7.83
2019-03-09T00:04:52.927Z,6.90
2019-03-09T00:07:22.268Z,6.20
2019-03-09T00:09:51.582Z,8.53
2019-03-09T00:12:20.906Z,8.77
2019-03-09T00:14:50.242Z,16.70
2019-03-09T00:17:19.583Z,5.30
2019-03-09T00:19:48.880Z,4.17
2019-03-09T00:22:18.226Z,7.13
2019-03-09T00:24:52.616Z,8.17
2019-03-09T00:27:40.845Z,6.87
2019-03-09T00:30:29.074Z,6.40
2019-03-09T00:32:58.457Z,7.97
2019-03-09T00:35:27.781Z,6.53
2019-03-09T00:37:57.049Z,9.93
2019-03-09T00:40:26.363Z,7.40
2019-03-09T00:42:55.729Z,8.60
2019-03-09T00:45:25.040Z,12.17
2019-03-09T00:47:54.372Z,10.33
2019-03-09T00:50:23.694Z,6.50
2019-03-09T00:52:53.035Z,8.37
2019-03-09T00:55:22.283Z,8.30
2019-03-09T00:57:51.555Z,7.33
2019-03-09T01:00:20.808Z,6.60
2019-03-09T01:02:51.179Z,6.73
2019-03-09T01:05:20.599Z,7.80
2019-03-09T01:07:49.847Z,5.23
2019-03-09T01:10:19.136Z,6.30
2019-03-09T01:12:48.387Z,7.33
2019-03-09T01:15:17.667Z,10.20
2019-03-09T01:17:46.990Z,7.83
2019-03-09T01:20:16.897Z,6.00
2019-03-09T01:22:46.210Z,7.90
2019-03-09T01:25:15.605Z,6.33
2019-03-09T01:27:44.839Z,9.67
2019-03-09T01:30:16.730Z,7.73
2019-03-09T01:32:46.067Z,8.97
2019-03-09T01:35:15.404Z,5.37
2019-03-09T01:37:44.708Z,6.67
2019-03-09T01:40:14.130Z,6.43
2019-03-09T01:42:43.533Z,8.67
2019-03-09T01:45:13.478Z,6.40
2019-03-09T01:47:42.719Z,8.13
2019-03-09T01:50:12.184Z,8.63
2019-03-09T01:52:41.503Z,6.67
2019-03-09T01:55:11.124Z,7.47
2019-03-09T01:57:40.439Z,6.67
2019-03-09T02:00:09.924Z,6.63
2019-03-09T02:02:39.166Z,7.27
2019-03-09T02:05:09.053Z,6.37
2019-03-09T02:07:38.395Z,7.57
2019-03-09T02:10:09.348Z,6.07
2019-03-09T02:12:38.589Z,3.67
2019-03-09T02:15:08.107Z,7.40
2019-03-09T02:17:37.404Z,7.77
2019-03-09T02:20:07.134Z,6.47
2019-03-09T02:22:36.375Z,5.07
2019-03-09T02:25:07.004Z,6.43
2019-03-09T02:27:36.244Z,9.13
2019-03-09T02:30:05.891Z,8.43
2019-03-09T02:32:35.202Z,7.43
2019-03-09T02:35:05.660Z,4.30
2019-03-09T02:37:34.854Z,8.07
2019-03-09T02:40:07.641Z,5.17
2019-03-09T02:42:36.916Z,6.00
2019-03-09T02:45:08.094Z,6.73
2019-03-09T02:47:37.573Z,3.70
2019-03-09T02:50:08.080Z,10.47
2019-03-09T02:52:37.383Z,7.33
2019-03-09T02:55:06.742Z,5.33
2019-03-09T02:57:36.065Z,7.83
2019-03-09T03:00:06.784Z,6.87
2019-03-09T03:02:39.018Z,5.87
2019-03-09T03:05:08.436Z,6.27
2019-03-09T03:07:37.612Z,6.53
2019-03-09T03:10:07.637Z,6.83
2019-03-09T03:12:36.957Z,5.53
2019-03-09T03:15:06.824Z,5.37
2019-03-09T03:17:36.154Z,7.97
2019-03-09T03:20:05.604Z,4.40
2019-03-09T03:22:34.879Z,8.40
2019-03-09T03:25:04.400Z,5.07
2019-03-09T03:27:33.665Z,6.73
2019-03-09T03:30:03.004Z,6.13
2019-03-09T03:32:34.915Z,6.83
2019-03-09T03:35:04.465Z,5.37
2019-03-09T03:37:33.724Z,4.03
2019-03-09T03:40:03.035Z,5.93
2019-03-09T03:42:32.385Z,3.07
2019-03-09T03:45:01.720Z,5.07
2019-03-09T03:47:31.037Z,4.57
2019-03-09T03:50:00.384Z,4.17
2019-03-09T03:52:29.725Z,5.57
2019-03-09T03:54:58.977Z,4.97
2019-03-09T03:57:28.296Z,6.50
2019-03-09T03:59:57.463Z,5.10
2019-03-09T04:02:26.801Z,6.63
2019-03-09T04:04:56.042Z,5.87
2019-03-09T04:07:25.398Z,4.77
2019-03-09T04:09:54.867Z,3.97
2019-03-09T04:12:24.238Z,3.60
2019-03-09T04:14:53.576Z,3.30
2019-03-09T04:17:22.917Z,4.23
2019-03-09T04:19:52.239Z,5.07
2019-03-09T04:22:21.469Z,4.30
2019-03-09T04:24:50.705Z,3.67
2019-03-09T04:27:20.069Z,4.43
2019-03-09T04:29:49.397Z,7.03
2019-03-09T04:32:18.680Z,5.97
2019-03-09T04:34:47.953Z,3.10
2019-03-09T04:37:17.301Z,4.00
2019-03-09T04:39:46.527Z,7.60
2019-03-09T04:42:15.788Z,3.07
2019-03-09T04:44:45.035Z,6.47
2019-03-09T04:47:14.203Z,6.40
2019-03-09T04:49:43.419Z,4.17
2019-03-09T04:52:12.724Z,4.43
2019-03-09T04:54:41.987Z,4.30
2019-03-09T04:57:11.232Z,4.20
2019-03-09T04:59:40.416Z,5.33
2019-03-09T05:02:09.670Z,3.73
2019-03-09T05:04:49.783Z,6.07
2019-03-09T05:07:34.645Z,3.07
2019-03-09T05:10:24.923Z,3.27
2019-03-09T05:12:57.780Z,2.67
2019-03-09T05:15:27.063Z,5.17
2019-03-09T05:17:56.238Z,3.70
2019-03-09T05:20:25.576Z,3.70
2019-03-09T05:22:54.801Z,2.70
2019-03-09T05:25:23.981Z,2.53
2019-03-09T05:27:53.140Z,3.47
2019-03-09T05:30:50.313Z,4.07
2019-03-09T05:33:19.656Z,2.33
2019-03-09T05:35:48.903Z,3.07
2019-03-09T05:38:18.150Z,2.63
2019-03-09T05:40:47.468Z,1.60
2019-03-09T05:43:16.761Z,2.40
2019-03-09T05:45:46.108Z,1.60
2019-03-09T05:48:15.345Z,4.10
2019-03-09T05:50:44.609Z,1.93
2019-03-09T05:53:26.614Z,2.10
2019-03-09T05:55:55.966Z,1.23
2019-03-09T05:58:25.162Z,1.13
2019-03-09T06:00:54.489Z,0.93
2019-03-09T06:03:23.665Z,0.67
2019-03-09T06:06:04.705Z,1.53
2019-03-09T06:08:33.866Z,0.50
2019-03-09T06:11:03.184Z,1.40
2019-03-09T06:13:32.447Z,0.70
2019-03-09T06:16:01.732Z,0.90
2019-03-09T06:18:30.958Z,0.70
2019-03-09T06:21:00.296Z,0.83
2019-03-09T06:23:29.626Z,0.70
2019-03-09T06:25:58.944Z,0.63
2019-03-09T06:28:28.259Z,0.77
2019-03-09T06:30:57.537Z,0.57
2019-03-09T06:33:28.608Z,0.70
2019-03-09T06:36:57.169Z,0.80
2019-03-09T06:39:47.617Z,0.70
2019-03-09T06:42:43.537Z,1.23
2019-03-09T06:45:17.464Z,0.83
2019-03-09T06:47:46.820Z,0.67
2019-03-09T06:50:18.079Z,0.80
2019-03-09T06:52:47.464Z,0.83
2019-03-09T06:55:16.736Z,0.70
2019-03-09T06:57:45.999Z,1.30
2019-03-09T07:00:38.110Z,1.53
2019-03-09T07:03:08.245Z,0.70
2019-03-09T07:05:37.556Z,0.87
2019-03-09T07:08:06.958Z,0.87
2019-03-09T07:10:36.299Z,0.90
2019-03-09T07:13:05.567Z,1.53
2019-03-09T07:15:43.216Z,0.80
2019-03-09T07:18:20.424Z,0.60
2019-03-09T07:20:49.626Z,1.23
2019-03-09T07:23:18.923Z,2.00
2019-03-09T07:25:48.171Z,0.73
2019-03-09T07:28:17.690Z,0.70
2019-03-09T07:30:47.018Z,0.70
2019-03-09T07:33:16.381Z,0.97
2019-03-09T07:35:45.648Z,0.70
2019-03-09T07:38:15.019Z,1.47
2019-03-09T07:40:44.263Z,0.90
2019-03-09T07:43:13.616Z,2.13
2019-03-09T07:45:42.910Z,0.77
2019-03-09T07:48:12.181Z,0.67
2019-03-09T07:50:41.554Z,0.80
2019-03-09T07:53:10.883Z,1.33
2019-03-09T07:55:40.192Z,1.00
2019-03-09T07:58:09.362Z,0.90
2019-03-09T08:00:38.692Z,0.80
2019-03-09T08:03:07.961Z,1.17
2019-03-09T08:05:37.259Z,1.43
2019-03-09T08:08:06.419Z,1.10
2019-03-09T08:10:35.663Z,1.10
2019-03-09T08:13:05.002Z,2.07
2019-03-09T08:15:34.371Z,2.50
2019-03-09T08:18:03.707Z,1.47
2019-03-09T08:20:32.957Z,0.80
2019-03-09T08:23:02.201Z,2.27
2019-03-09T08:25:31.536Z,1.27
2019-03-09T08:28:00.769Z,1.23
2019-03-09T08:30:30.038Z,1.13
2019-03-09T08:32:59.412Z,0.80
2019-03-09T08:35:28.648Z,1.07
2019-03-09T08:37:57.897Z,1.33
2019-03-09T08:40:27.271Z,1.10
2019-03-09T08:42:56.604Z,2.10
2019-03-09T08:45:25.946Z,1.07
2019-03-09T08:47:55.304Z,1.10
2019-03-09T08:50:24.606Z,1.30
2019-03-09T08:52:53.938Z,1.83
2019-03-09T08:55:23.276Z,0.70
2019-03-09T08:57:52.598Z,0.90
2019-03-09T09:00:26.867Z,1.10
2019-03-09T09:02:56.181Z,1.83
2019-03-09T09:05:25.375Z,1.10
2019-03-09T09:07:54.703Z,1.43
2019-03-09T09:10:24.057Z,1.23
2019-03-09T09:12:53.356Z,1.07
2019-03-09T09:15:22.525Z,1.20
2019-03-09T09:17:51.872Z,1.13
2019-03-09T09:20:21.689Z,1.13
2019-03-09T09:22:50.955Z,1.00
2019-03-09T09:25:20.305Z,1.10
2019-03-09T09:27:51.764Z,1.20
2019-03-09T09:30:22.506Z,1.00
2019-03-09T09:32:51.951Z,1.30
2019-03-09T09:35:21.413Z,1.10
2019-03-09T09:37:51.036Z,1.20
2019-03-09T09:40:21.428Z,1.93
2019-03-09T09:42:50.850Z,1.43
2019-03-09T09:45:20.279Z,0.87
2019-03-09T09:47:49.645Z,1.33
2019-03-09T09:50:18.953Z,1.23
2019-03-09T09:52:48.312Z,1.10
2019-03-09T09:55:17.623Z,1.33
2019-03-09T09:57:46.984Z,1.87
2019-03-09T10:00:18.380Z,2.40
2019-03-09T10:02:47.644Z,1.23
2019-03-09T10:05:17.066Z,1.23
2019-03-09T10:07:46.447Z,1.73
2019-03-09T10:10:16.944Z,1.40
2019-03-09T10:12:46.253Z,2.20
2019-03-09T10:15:23.660Z,1.20
2019-03-09T10:17:52.922Z,1.17
2019-03-09T10:20:22.204Z,1.77
2019-03-09T10:22:51.548Z,1.40
2019-03-09T10:25:20.851Z,1.40
2019-03-09T10:27:50.155Z,1.87
2019-03-09T10:30:20.611Z,1.43
2019-03-09T10:32:49.929Z,1.90
2019-03-09T10:35:19.158Z,1.57
2019-03-09T10:37:48.498Z,1.53
2019-03-09T10:40:17.786Z,1.97
2019-03-09T10:42:47.112Z,2.43
2019-03-09T10:45:16.551Z,1.33
2019-03-09T10:47:45.808Z,1.17
2019-03-09T10:50:15.111Z,1.23
2019-03-09T10:52:44.357Z,1.67
2019-03-09T10:55:15.916Z,1.90
2019-03-09T10:57:45.207Z,1.50
2019-03-09T11:00:26.485Z,1.80
2019-03-09T11:02:55.852Z,1.70
2019-03-09T11:05:25.113Z,1.60
2019-03-09T11:07:54.392Z,1.30
2019-03-09T11:10:23.715Z,1.23
2019-03-09T11:12:53.033Z,1.30
2019-03-09T11:15:22.220Z,1.33
2019-03-09T11:17:51.465Z,1.20
2019-03-09T11:20:20.917Z,1.80
2019-03-09T11:22:50.221Z,1.67
2019-03-09T11:25:19.568Z,1.57
2019-03-09T11:27:48.803Z,1.33
2019-03-09T11:30:20.216Z,1.83
2019-03-09T11:32:49.475Z,1.47
2019-03-09T11:35:18.755Z,1.97
2019-03-09T11:37:48.144Z,1.10
2019-03-09T11:40:17.509Z,1.67
2019-03-09T11:42:46.827Z,1.23
2019-03-09T11:45:16.172Z,1.43
2019-03-09T11:47:45.520Z,1.30
2019-03-09T11:50:15.749Z,1.97
2019-03-09T11:52:45.096Z,1.30
2019-03-09T11:55:14.418Z,2.83
2019-03-09T11:57:43.806Z,1.77
2019-03-09T12:00:15.929Z,1.40
2019-03-09T12:02:45.309Z,1.50
2019-03-09T12:05:14.475Z,1.83
2019-03-09T12:07:43.755Z,1.30
2019-03-09T12:10:13.299Z,2.00
2019-03-09T12:12:42.632Z,2.83
2019-03-09T12:15:12.099Z,1.40
2019-03-09T12:17:41.351Z,2.40
2019-03-09T12:20:10.628Z,1.47
2019-03-09T12:22:39.968Z,3.57
2019-03-09T12:25:09.841Z,2.03
2019-03-09T12:27:39.204Z,2.43
2019-03-09T12:30:10.339Z,1.30
2019-03-09T12:32:39.686Z,1.30
2019-03-09T12:35:09.133Z,1.30
2019-03-09T12:37:38.515Z,1.40
2019-03-09T12:40:10.115Z,1.37
2019-03-09T12:42:39.443Z,1.63
2019-03-09T12:45:09.933Z,1.33
2019-03-09T12:47:39.350Z,4.03
2019-03-09T12:50:12.248Z,1.97
2019-03-09T12:52:41.519Z,1.30
2019-03-09T12:55:10.828Z,1.80
2019-03-09T12:57:40.098Z,2.83
2019-03-09T13:00:11.790Z,1.30
2019-03-09T13:02:41.178Z,1.40
2019-03-09T13:05:10.434Z,1.03
2019-03-09T13:07:39.789Z,1.37
2019-03-09T13:10:09.273Z,1.00
2019-03-09T13:12:38.584Z,0.90
2019-03-09T13:15:08.250Z,1.17
2019-03-09T13:17:37.511Z,1.37
2019-03-09T13:20:06.917Z,1.10
2019-03-09T13:22:36.177Z,1.63
2019-03-09T13:25:05.652Z,1.50
2019-03-09T13:27:34.929Z,1.30
2019-03-09T13:30:04.613Z,1.67
2019-03-09T13:32:33.929Z,1.50
2019-03-09T13:35:03.281Z,2.50
2019-03-09T13:37:32.588Z,4.00
2019-03-09T13:40:01.933Z,1.63
2019-03-09T13:42:31.197Z,1.60
2019-03-09T13:45:00.455Z,1.47
2019-03-09T13:47:29.655Z,2.00
2019-03-09T13:49:58.957Z,1.00
2019-03-09T13:52:28.193Z,1.10
2019-03-09T13:54:57.668Z,1.20
2019-03-09T13:57:26.827Z,2.40
2019-03-09T13:59:56.022Z,1.37
2019-03-09T14:02:25.269Z,1.90
2019-03-09T14:04:54.530Z,2.33
2019-03-09T14:07:23.856Z,1.90
2019-03-09T14:09:53.296Z,2.53
2019-03-09T14:12:22.737Z,2.63
2019-03-09T14:14:52.693Z,2.93
2019-03-09T14:17:22.013Z,4.17
2019-03-09T14:19:51.296Z,2.60
2019-03-09T14:22:20.525Z,3.30
2019-03-09T14:24:49.893Z,3.87
2019-03-09T14:27:22.042Z,2.63
2019-03-09T14:29:51.478Z,2.87
2019-03-09T14:32:20.708Z,2.97
2019-03-09T14:34:49.976Z,2.93
2019-03-09T14:37:19.230Z,3.03
2019-03-09T14:39:48.388Z,2.70
2019-03-09T14:42:17.581Z,2.33
2019-03-09T14:44:46.816Z,2.47
2019-03-09T14:47:16.081Z,2.40
2019-03-09T14:49:47.303Z,1.90
2019-03-09T14:52:16.916Z,1.87
2019-03-09T14:54:46.240Z,1.40
2019-03-09T14:57:15.433Z,1.40
2019-03-09T14:59:44.688Z,1.07
2019-03-09T15:02:14.059Z,1.00
2019-03-09T15:04:43.323Z,1.33
2019-03-09T15:07:12.580Z,0.97
2019-03-09T15:09:41.940Z,1.37
2019-03-09T15:12:11.175Z,0.83
2019-03-09T15:14:40.437Z,1.13
2019-03-09T15:17:09.792Z,1.77
2019-03-09T15:19:39.039Z,1.43
2019-03-09T15:22:08.396Z,1.13
2019-03-09T15:24:37.660Z,1.87
2019-03-09T15:27:06.924Z,3.77
2019-03-09T15:29:36.170Z,2.17
2019-03-09T15:32:05.396Z,1.23
2019-03-09T15:34:34.762Z,3.63
2019-03-09T15:37:04.056Z,2.63
2019-03-09T15:39:33.337Z,2.80
2019-03-09T15:42:02.583Z,3.00
2019-03-09T15:44:31.959Z,5.33
2019-03-09T15:47:01.199Z,5.03
2019-03-09T15:49:30.404Z,3.07
2019-03-09T15:52:00.917Z,5.73
2019-03-09T15:54:30.225Z,4.53
2019-03-09T15:56:59.491Z,4.97
2019-03-09T15:59:28.781Z,3.13
2019-03-09T16:01:58.032Z,6.10
2019-03-09T16:04:27.363Z,6.23
2019-03-09T16:06:56.676Z,3.97
2019-03-09T16:09:25.951Z,4.47
2019-03-09T16:11:55.305Z,7.93
2019-03-09T16:14:24.547Z,7.10
2019-03-09T16:16:53.789Z,5.60
2019-03-09T16:19:23.047Z,8.67
2019-03-09T16:21:52.221Z,6.77
2019-03-09T16:24:21.577Z,7.20
2019-03-09T16:26:50.812Z,5.80
2019-03-09T16:29:20.068Z,6.17
2019-03-09T16:31:49.223Z,6.77
2019-03-09T16:34:18.583Z,9.57
2019-03-09T16:36:47.825Z,9.63
2019-03-09T16:39:17.082Z,6.07
2019-03-09T16:41:46.324Z,8.27
2019-03-09T16:44:15.586Z,6.13
2019-03-09T16:46:44.832Z,7.77
2019-03-09T16:49:14.182Z,8.57
2019-03-09T16:51:43.430Z,4.83
2019-03-09T16:54:12.655Z,7.97
2019-03-09T16:56:41.941Z,8.73
2019-03-09T16:59:11.150Z,8.67
2019-03-09T17:01:40.415Z,10.47
2019-03-09T17:04:09.643Z,8.10
2019-03-09T17:06:38.896Z,8.37
2019-03-09T17:09:08.342Z,9.40
2019-03-09T17:11:37.734Z,9.37
2019-03-09T17:14:06.963Z,8.40
2019-03-09T17:16:36.157Z,6.90
2019-03-09T17:19:05.397Z,6.50
2019-03-09T17:21:34.659Z,10.60
2019-03-09T17:24:03.904Z,10.83
2019-03-09T17:26:33.175Z,10.07
2019-03-09T17:29:02.484Z,11.20
2019-03-09T17:31:31.743Z,9.43
2019-03-09T17:34:00.937Z,11.40
2019-03-09T17:36:30.198Z,10.50
2019-03-09T17:38:59.361Z,8.43
2019-03-09T17:41:28.661Z,10.20
2019-03-09T17:43:57.908Z,8.00
2019-03-09T17:46:27.172Z,10.17
2019-03-09T17:48:56.418Z,10.33
2019-03-09T17:51:25.670Z,7.07
2019-03-09T17:53:54.918Z,8.80
2019-03-09T17:56:24.173Z,12.43
2019-03-09T17:58:54.298Z,8.93
2019-03-09T18:01:23.648Z,13.13
2019-03-09T18:03:52.891Z,7.30
2019-03-09T18:06:22.215Z,10.93
2019-03-09T18:08:51.560Z,8.07
2019-03-09T18:11:20.837Z,6.97
2019-03-09T18:13:50.190Z,9.17
2019-03-09T18:16:19.496Z,9.13
2019-03-09T18:18:48.808Z,12.63
2019-03-09T18:21:19.364Z,11.37
2019-03-09T18:23:48.679Z,11.73
2019-03-09T18:26:17.880Z,8.67
2019-03-09T18:28:47.231Z,8.00
2019-03-09T18:31:16.573Z,16.93
2019-03-09T18:33:45.950Z,12.20
2019-03-09T18:36:15.283Z,12.63
2019-03-09T18:38:44.625Z,10.30
2019-03-09T18:41:13.877Z,14.73
2019-03-09T18:43:43.140Z,10.93
2019-03-09T18:46:13.896Z,9.80
2019-03-09T18:48:43.329Z,9.87
2019-03-09T18:51:12.592Z,10.43
2019-03-09T18:53:42.911Z,9.17
2019-03-09T18:56:17.517Z,14.03
2019-03-09T18:58:48.117Z,9.10
2019-03-09T19:01:20.726Z,9.93
2019-03-09T19:03:50.776Z,13.23
2019-03-09T19:06:20.628Z,8.80
2019-03-09T19:08:49.809Z,13.17
2019-03-09T19:11:21.532Z,9.13
2019-03-09T19:13:51.077Z,9.47
2019-03-09T19:16:20.464Z,8.90
2019-03-09T19:18:49.858Z,12.20
2019-03-09T19:21:19.251Z,14.10
2019-03-09T19:23:48.660Z,12.03
2019-03-09T19:26:18.039Z,13.80
2019-03-09T19:28:48.528Z,12.47
2019-03-09T19:31:22.685Z,15.07
2019-03-09T19:33:52.932Z,9.33
2019-03-09T19:36:22.323Z,14.27
2019-03-09T19:38:56.896Z,11.47
2019-03-09T19:41:26.881Z,12.40
2019-03-09T19:43:58.454Z,11.97
2019-03-09T19:46:27.818Z,10.00
2019-03-09T19:49:00.399Z,12.70
2019-03-09T19:51:30.811Z,14.83
2019-03-09T19:54:00.732Z,16.23
2019-03-09T19:56:30.784Z,14.07
2019-03-09T19:59:01.558Z,14.00
2019-03-09T20:01:32.719Z,14.17
2019-03-09T20:04:05.028Z,16.87
2019-03-09T20:06:35.258Z,14.23
2019-03-09T20:09:07.390Z,13.27
2019-03-09T20:11:38.728Z,14.97
2019-03-09T20:14:10.273Z,14.63
2019-03-09T20:16:41.545Z,16.67
2019-03-09T20:19:13.010Z,14.40
2019-03-09T20:21:43.915Z,13.97
2019-03-09T20:24:15.147Z,14.97
2019-03-09T20:26:45.571Z,21.53
2019-03-09T20:29:15.449Z,17.30
2019-03-09T20:31:47.927Z,15.97
2019-03-09T20:34:21.517Z,14.97
2019-03-09T20:36:52.422Z,16.03
2019-03-09T20:39:24.109Z,13.33
2019-03-09T20:41:54.257Z,17.43
2019-03-09T20:44:25.722Z,15.13
2019-03-09T20:46:55.792Z,15.33
2019-03-09T20:49:26.407Z,11.37
2019-03-09T20:51:56.708Z,16.87
2019-03-09T20:54:29.603Z,17.13
2019-03-09T20:57:00.778Z,12.70
2019-03-09T20:59:30.623Z,16.13
2019-03-09T21:02:01.280Z,14.63
2019-03-09T21:04:32.490Z,13.83
2019-03-09T21:07:02.966Z,15.30
2019-03-09T21:09:33.453Z,15.03
2019-03-09T21:12:03.433Z,23.93
2019-03-09T21:14:35.199Z,17.10
2019-03-09T21:17:06.270Z,13.70
2019-03-09T21:19:36.306Z,16.13
2019-03-09T21:22:05.691Z,18.07
2019-03-09T21:24:35.141Z,15.53
2019-03-09T21:27:04.659Z,18.17
2019-03-09T21:29:33.896Z,15.57
2019-03-09T21:32:03.249Z,16.90
2019-03-09T21:34:32.674Z,16.50
2019-03-09T21:37:02.070Z,18.90
2019-03-09T21:39:31.486Z,16.27
2019-03-09T21:42:00.792Z,18.80
2019-03-09T21:44:30.067Z,17.20
2019-03-09T21:46:59.302Z,16.97
2019-03-09T21:49:28.605Z,18.47
2019-03-09T21:51:58.036Z,14.50
2019-03-09T21:54:27.428Z,22.83
2019-03-09T21:56:56.840Z,16.53
2019-03-09T21:59:26.401Z,14.23
2019-03-09T22:01:55.784Z,16.50
2019-03-09T22:04:25.062Z,16.27
2019-03-09T22:06:54.734Z,18.43
2019-03-09T22:09:24.527Z,15.83
2019-03-09T22:11:53.853Z,20.67
2019-03-09T22:14:23.258Z,17.13
2019-03-09T22:16:56.497Z,22.40
2019-03-09T22:19:23.656Z,14.77
2019-03-09T22:21:53.028Z,18.23
2019-03-09T22:24:22.431Z,16.10
2019-03-09T22:26:51.880Z,17.47
2019-03-09T22:29:21.543Z,14.93
2019-03-09T22:31:50.896Z,18.17
2019-03-09T22:34:20.326Z,12.67
2019-03-09T22:36:50.690Z,14.77
2019-03-09T22:39:20.021Z,22.67
2019-03-09T22:41:49.410Z,18.47
2019-03-09T22:44:18.843Z,18.93
2019-03-09T22:46:48.192Z,20.20
2019-03-09T22:49:17.552Z,17.73
2019-03-09T22:51:46.888Z,21.57
2019-03-09T22:54:16.314Z,13.67
2019-03-09T22:56:45.716Z,14.57
2019-03-09T22:59:15.031Z,22.43
2019-03-09T23:01:44.509Z,17.33
2019-03-09T23:04:13.833Z,15.33
2019-03-09T23:06:43.265Z,22.07
2019-03-09T23:09:12.887Z,17.40
2019-03-09T23:11:42.268Z,20.10
2019-03-09T23:14:11.592Z,19.33
2019-03-09T23:16:41.026Z,21.83
2019-03-09T23:19:10.436Z,25.43
2019-03-09T23:21:39.893Z,18.43
2019-03-09T23:24:10.090Z,17.10
2019-03-09T23:26:42.612Z,16.47
2019-03-09T23:29:11.939Z,15.80
2019-03-09T23:31:41.407Z,18.27
2019-03-09T23:34:10.751Z,22.87
2019-03-09T23:36:40.357Z,23.20
2019-03-09T23:39:09.761Z,13.20
2019-03-09T23:41:39.118Z,22.73
2019-03-09T23:44:08.478Z,23.03
2019-03-09T23:46:37.959Z,19.23
2019-03-09T23:49:07.217Z,22.57
2019-03-09T23:51:36.504Z,17.13
2019-03-09T23:54:05.752Z,17.63
2019-03-09T23:56:35.150Z,16.17
2019-03-09T23:59:04.428Z,19.73
